Terminal Aerodrome Forecast
Issued by NWS Sterling, VA

Current Version | Previous Version | Text Only | Print | Product List | Glossary Off
Versions: 1 2 3 4 5 6 7 8 9 10 11 12 13 14 15 16 17 18 19 20 21 22 23 24 25 26 27

000
FTUS41 KLWX 151100 AAA
TAFIAD
TAF AMD
KIAD 151143Z 1512/1618 18012KT 5SM SHRA OVC015
     FM151700 23014KT 3SM SHRA OVC015
     FM151800 29013KT 5SM -SHRA OVC025
     FM152000 32017G26KT 5SM -SHRA OVC025
     FM152300 33019G29KT P6SM -SHRA SCT030 BKN040
     FM160000 33019G29KT P6SM SCT030 BKN040
     FM160400 33020G29KT P6SM FEW040 SCT150
     FM160800 33014KT P6SM SKC
     FM161700 01010KT P6SM SKC=

USA.gov is the U.S. government's official web portal to all federal, state and local government web resources and services.